Terminal Aerodrome Forecast
Issued by NWS

Home | Current Version | Previous Version | Text Only | Print | Product List | Glossary On
Versions: 1 2 3 4 5 6 7 8 9 10 11 12 13 14 15 16 17
000
FTUS43 KDVN 152300 RRA
TAFBRL
TAF
KBRL 152349Z 1600/1624 14007KT 5SM -RADZ BR OVC008
      TEMPO 1600/1602 2SM -RA OVC004
     FM161000 31013KT 2SM -RA BR OVC008
     FM161200 30014G21KT 3SM -RASN BR OVC008
     FM161400 30015G24KT 6SM BR OVC012
     FM161900 32016G25KT P6SM OVC020=

USA.gov is the U.S. government's official web portal to all federal, state and local government web resources and services.